createdAt,value
2019-02-14T00:01:11.930Z,11.30
2019-02-14T00:03:17.102Z,11.30
2019-02-14T00:05:22.518Z,11.30
2019-02-14T00:07:27.699Z,11.30
2019-02-14T00:09:32.876Z,11.30
2019-02-14T00:11:38.067Z,11.40
2019-02-14T00:13:43.553Z,11.30
2019-02-14T00:15:48.732Z,11.30
2019-02-14T00:17:54.222Z,11.30
2019-02-14T00:20:00.485Z,11.30
2019-02-14T00:22:05.705Z,11.30
2019-02-14T00:24:10.896Z,11.40
2019-02-14T00:26:16.076Z,11.40
2019-02-14T00:28:21.252Z,11.40
2019-02-14T00:30:26.424Z,11.40
2019-02-14T00:32:31.608Z,11.40
2019-02-14T00:34:36.791Z,11.40
2019-02-14T00:36:41.964Z,11.40
2019-02-14T00:38:47.130Z,11.40
2019-02-14T00:40:52.305Z,11.40
2019-02-14T00:42:57.485Z,11.40
2019-02-14T00:45:04.328Z,11.40
2019-02-14T00:47:09.504Z,11.40
2019-02-14T00:49:14.670Z,11.40
2019-02-14T00:51:19.852Z,11.40
2019-02-14T00:53:25.021Z,11.40
2019-02-14T00:55:30.205Z,11.40
2019-02-14T00:57:35.389Z,11.40
2019-02-14T00:59:40.568Z,11.40
2019-02-14T01:01:45.749Z,11.40
2019-02-14T01:03:50.910Z,11.40
2019-02-14T01:05:56.091Z,11.50
2019-02-14T01:08:01.275Z,11.40
2019-02-14T01:10:07.089Z,11.40
2019-02-14T01:12:12.555Z,11.40
2019-02-14T01:14:17.717Z,11.40
2019-02-14T01:16:22.896Z,11.40
2019-02-14T01:18:28.065Z,11.40
2019-02-14T01:20:34.372Z,11.50
2019-02-14T01:22:39.546Z,11.50
2019-02-14T01:24:45.035Z,11.50
2019-02-14T01:26:50.225Z,11.40
2019-02-14T01:28:55.396Z,11.40
2019-02-14T01:31:00.587Z,11.40
2019-02-14T01:33:05.770Z,11.40
2019-02-14T01:35:11.025Z,11.40
2019-02-14T01:37:16.274Z,11.40
2019-02-14T01:39:21.442Z,11.40
2019-02-14T01:41:26.628Z,11.40
2019-02-14T01:43:31.814Z,11.40
2019-02-14T01:45:36.994Z,11.50
2019-02-14T01:47:42.164Z,11.50
2019-02-14T01:49:47.333Z,11.50
2019-02-14T01:51:52.515Z,11.50
2019-02-14T01:53:57.696Z,11.50
2019-02-14T01:56:02.870Z,11.50
2019-02-14T01:58:08.046Z,11.50
2019-02-14T02:00:15.447Z,11.50
2019-02-14T02:02:20.619Z,11.50
2019-02-14T02:04:25.802Z,11.50
2019-02-14T02:06:30.974Z,11.50
2019-02-14T02:08:36.162Z,11.50
2019-02-14T02:10:41.336Z,11.50
2019-02-14T02:12:46.522Z,11.50
2019-02-14T02:14:51.706Z,11.50
2019-02-14T02:16:57.851Z,11.40
2019-02-14T02:19:03.099Z,11.50
2019-02-14T02:21:08.269Z,11.40
2019-02-14T02:23:13.451Z,11.40
2019-02-14T02:25:19.599Z,11.40
2019-02-14T02:27:25.047Z,11.40
2019-02-14T02:29:30.539Z,11.40
2019-02-14T02:31:35.715Z,11.40
2019-02-14T02:33:40.903Z,11.40
2019-02-14T02:35:46.065Z,11.40
2019-02-14T02:37:51.245Z,11.40
2019-02-14T02:39:57.746Z,11.40
2019-02-14T02:42:02.921Z,11.40
2019-02-14T02:44:09.119Z,11.40
2019-02-14T02:46:15.321Z,11.40
2019-02-14T02:48:20.501Z,11.40
2019-02-14T02:50:25.671Z,11.40
2019-02-14T02:52:30.846Z,11.40
2019-02-14T02:54:36.038Z,11.40
2019-02-14T02:56:41.476Z,11.50
2019-02-14T02:58:46.666Z,11.50
2019-02-14T03:00:51.841Z,11.40
2019-02-14T03:02:57.025Z,11.50
2019-02-14T03:05:02.213Z,11.50
2019-02-14T03:07:07.763Z,11.50
2019-02-14T03:09:12.959Z,11.40
2019-02-14T03:11:18.135Z,11.50
2019-02-14T03:13:23.311Z,11.40
2019-02-14T03:15:28.483Z,11.40
2019-02-14T03:17:34.152Z,11.40
2019-02-14T03:19:39.642Z,11.40
2019-02-14T03:21:44.828Z,11.40
2019-02-14T03:23:50.031Z,11.40
2019-02-14T03:25:55.205Z,11.30
2019-02-14T03:28:00.382Z,11.30
2019-02-14T03:30:10.861Z,11.30
2019-02-14T03:32:16.032Z,11.20
2019-02-14T03:34:21.218Z,11.20
2019-02-14T03:36:26.402Z,11.20
2019-02-14T03:38:31.580Z,11.10
2019-02-14T03:40:36.769Z,11.10
2019-02-14T03:42:41.953Z,11.10
2019-02-14T03:44:47.155Z,11.00
2019-02-14T03:46:52.321Z,11.00
2019-02-14T03:48:57.534Z,10.90
2019-02-14T03:51:02.703Z,10.90
2019-02-14T03:53:07.884Z,10.80
2019-02-14T03:55:13.073Z,10.80
2019-02-14T03:57:18.592Z,10.80
2019-02-14T03:59:23.776Z,10.70
2019-02-14T04:01:28.943Z,10.70
2019-02-14T04:03:34.127Z,10.70
2019-02-14T04:05:39.315Z,10.60
2019-02-14T04:07:44.491Z,10.60
2019-02-14T04:09:49.679Z,10.60
2019-02-14T04:11:54.859Z,10.60
2019-02-14T04:14:00.023Z,10.50
2019-02-14T04:16:06.348Z,10.50
2019-02-14T04:18:11.523Z,10.50
2019-02-14T04:20:17.775Z,10.50
2019-02-14T04:22:22.947Z,10.40
2019-02-14T04:24:28.114Z,10.40
2019-02-14T04:26:33.296Z,10.40
2019-02-14T04:28:38.475Z,10.40
2019-02-14T04:30:43.904Z,10.40
2019-02-14T04:32:49.080Z,10.30
2019-02-14T04:34:54.278Z,10.30
2019-02-14T04:36:59.448Z,10.30
2019-02-14T04:39:05.573Z,10.30
2019-02-14T04:41:11.008Z,10.20
2019-02-14T04:43:16.180Z,10.20
2019-02-14T04:45:22.341Z,10.20
2019-02-14T04:47:27.516Z,10.20
2019-02-14T04:49:32.684Z,10.20
2019-02-14T04:51:38.189Z,10.20
2019-02-14T04:53:43.359Z,10.20
2019-02-14T04:55:48.870Z,10.10
2019-02-14T04:57:54.038Z,10.20
2019-02-14T04:59:59.549Z,10.20
2019-02-14T05:02:04.736Z,10.10
2019-02-14T05:04:09.919Z,10.10
2019-02-14T05:06:15.471Z,10.10
2019-02-14T05:08:20.641Z,10.10
2019-02-14T05:10:25.820Z,10.10
2019-02-14T05:12:30.997Z,10.00
2019-02-14T05:14:37.028Z,10.10
2019-02-14T05:16:42.204Z,10.00
2019-02-14T05:18:47.384Z,10.00
2019-02-14T05:20:52.931Z,10.00
2019-02-14T05:22:58.097Z,10.00
2019-02-14T05:25:03.344Z,10.00
2019-02-14T05:27:08.532Z,9.90
2019-02-14T05:29:13.697Z,9.90
2019-02-14T05:31:18.886Z,9.90
2019-02-14T05:33:24.089Z,9.80
2019-02-14T05:35:29.261Z,9.80
2019-02-14T05:37:34.438Z,9.80
2019-02-14T05:39:39.601Z,9.80
2019-02-14T05:41:44.801Z,9.70
2019-02-14T05:43:50.003Z,9.70
2019-02-14T05:45:55.167Z,9.70
2019-02-14T05:48:00.327Z,9.60
2019-02-14T05:50:10.074Z,9.60
2019-02-14T05:52:15.326Z,9.60
2019-02-14T05:54:20.887Z,9.60
2019-02-14T05:56:26.059Z,9.60
2019-02-14T05:58:31.566Z,9.50
2019-02-14T06:00:36.735Z,9.50
2019-02-14T06:02:41.905Z,9.50
2019-02-14T06:04:47.372Z,9.50
2019-02-14T06:07:00.628Z,9.50
2019-02-14T06:08:59.336Z,9.50
2019-02-14T06:11:04.499Z,9.50
2019-02-14T06:13:09.664Z,9.40
2019-02-14T06:15:15.527Z,9.40
2019-02-14T06:17:20.714Z,9.40
2019-02-14T06:19:25.873Z,9.40
2019-02-14T06:21:31.038Z,9.40
2019-02-14T06:23:36.204Z,9.40
2019-02-14T06:25:41.376Z,9.40
2019-02-14T06:27:46.556Z,9.40
2019-02-14T06:29:51.712Z,9.30
2019-02-14T06:31:56.881Z,9.30
2019-02-14T06:34:02.066Z,9.30
2019-02-14T06:36:07.223Z,9.30
2019-02-14T06:38:12.388Z,9.30
2019-02-14T06:40:17.549Z,9.30
2019-02-14T06:43:11.666Z,9.20
2019-02-14T06:44:46.828Z,9.20
2019-02-14T06:46:21.990Z,9.20
2019-02-14T06:48:02.142Z,9.20
2019-02-14T06:49:38.547Z,9.20
2019-02-14T06:51:14.287Z,9.20
2019-02-14T06:52:50.737Z,9.20
2019-02-14T06:54:26.192Z,9.20
2019-02-14T06:56:01.347Z,9.20
2019-02-14T06:57:36.896Z,9.20
2019-02-14T06:59:12.052Z,9.20
2019-02-14T07:00:47.481Z,9.20
2019-02-14T07:02:22.636Z,9.20
2019-02-14T07:03:57.812Z,9.20
2019-02-14T07:05:32.976Z,9.20
2019-02-14T07:07:08.148Z,9.20
2019-02-14T07:08:43.320Z,9.20
2019-02-14T07:10:18.491Z,9.30
2019-02-14T07:11:53.669Z,9.30
2019-02-14T07:13:28.836Z,9.30
2019-02-14T07:15:06.040Z,9.30
2019-02-14T07:16:41.273Z,9.40
2019-02-14T07:18:16.445Z,9.40
2019-02-14T07:19:51.857Z,9.40
2019-02-14T07:21:27.035Z,9.40
2019-02-14T07:23:02.205Z,9.50
2019-02-14T07:24:37.370Z,9.50
2019-02-14T07:26:13.027Z,9.50
2019-02-14T07:27:48.157Z,9.60
2019-02-14T07:29:23.328Z,9.60
2019-02-14T07:30:58.498Z,9.60
2019-02-14T07:32:33.663Z,9.70
2019-02-14T07:34:08.832Z,9.70
2019-02-14T07:35:44.001Z,9.80
2019-02-14T07:37:26.560Z,9.80
2019-02-14T07:38:55.966Z,9.90
2019-02-14T07:40:31.410Z,9.90
2019-02-14T07:42:06.591Z,10.00
2019-02-14T07:43:41.755Z,10.00
2019-02-14T07:45:17.937Z,10.00
2019-02-14T07:46:53.481Z,10.10
2019-02-14T07:48:28.658Z,10.10
2019-02-14T07:50:04.197Z,10.20
2019-02-14T07:51:39.370Z,10.20
2019-02-14T07:53:14.541Z,10.20
2019-02-14T07:54:49.724Z,10.30
2019-02-14T07:56:24.882Z,10.30
2019-02-14T07:58:00.115Z,10.40
2019-02-14T07:59:35.287Z,10.40
2019-02-14T08:01:10.457Z,10.50
2019-02-14T08:02:46.594Z,10.60
2019-02-14T08:04:21.779Z,10.60
2019-02-14T08:05:56.945Z,10.70
2019-02-14T08:07:35.864Z,10.80
2019-02-14T08:09:09.685Z,10.80
2019-02-14T08:10:44.868Z,10.90
2019-02-14T08:12:20.036Z,10.90
2019-02-14T08:13:55.212Z,11.00
2019-02-14T08:15:30.716Z,11.00
2019-02-14T08:17:05.891Z,11.10
2019-02-14T08:18:41.058Z,11.10
2019-02-14T08:20:21.558Z,11.20
2019-02-14T08:21:56.965Z,11.20
2019-02-14T08:23:32.412Z,11.20
2019-02-14T08:25:10.821Z,11.30
2019-02-14T08:26:46.865Z,11.40
2019-02-14T08:28:23.111Z,11.40
2019-02-14T08:29:58.298Z,11.50
2019-02-14T08:31:34.438Z,11.60
2019-02-14T08:33:09.600Z,11.60
2019-02-14T08:34:44.782Z,11.70
2019-02-14T08:36:19.956Z,11.80
2019-02-14T08:37:55.137Z,11.80
2019-02-14T08:39:30.320Z,11.90
2019-02-14T08:41:05.489Z,11.90
2019-02-14T08:42:40.654Z,12.00
2019-02-14T08:44:16.984Z,12.00
2019-02-14T08:45:52.170Z,12.00
2019-02-14T08:47:27.333Z,12.10
2019-02-14T08:49:02.503Z,12.10
2019-02-14T08:50:37.678Z,12.20
2019-02-14T08:52:12.923Z,12.20
2019-02-14T08:53:49.088Z,12.30
2019-02-14T08:55:24.268Z,12.30
2019-02-14T08:56:59.761Z,12.30
2019-02-14T08:58:34.937Z,12.40
2019-02-14T09:00:16.088Z,12.40
2019-02-14T09:01:51.258Z,12.50
2019-02-14T09:03:26.435Z,12.60
2019-02-14T09:05:01.613Z,12.70
2019-02-14T09:06:37.103Z,12.80
2019-02-14T09:08:12.279Z,12.90
2019-02-14T09:09:47.468Z,13.00
2019-02-14T09:11:22.641Z,13.20
2019-02-14T09:12:57.823Z,13.30
2019-02-14T09:14:33.000Z,13.50
2019-02-14T09:16:08.179Z,13.60
2019-02-14T09:17:43.349Z,13.80
2019-02-14T09:19:18.524Z,13.90
2019-02-14T09:20:53.702Z,14.00
2019-02-14T09:22:28.870Z,14.10
2019-02-14T09:24:04.045Z,14.20
2019-02-14T09:25:39.573Z,14.30
2019-02-14T09:27:14.747Z,14.30
2019-02-14T09:28:50.238Z,14.40
2019-02-14T09:30:25.798Z,14.40
2019-02-14T09:32:00.971Z,14.50
2019-02-14T09:33:36.149Z,14.50
2019-02-14T09:35:13.134Z,14.60
2019-02-14T09:36:48.307Z,14.70
2019-02-14T09:38:23.480Z,14.70
2019-02-14T09:39:58.660Z,14.80
2019-02-14T09:41:33.859Z,14.90
2019-02-14T09:43:09.031Z,15.00
2019-02-14T09:44:44.520Z,15.10
2019-02-14T09:46:21.054Z,15.20
2019-02-14T09:47:56.230Z,15.30
2019-02-14T09:49:31.398Z,15.50
2019-02-14T09:51:06.580Z,15.60
2019-02-14T09:52:42.226Z,15.70
2019-02-14T09:54:17.854Z,15.80
2019-02-14T09:55:53.026Z,15.90
2019-02-14T09:57:28.224Z,16.00
2019-02-14T09:59:03.394Z,16.10
2019-02-14T10:00:38.580Z,16.20
2019-02-14T10:02:13.761Z,16.40
2019-02-14T10:03:49.253Z,16.60
2019-02-14T10:05:25.806Z,16.70
2019-02-14T10:07:01.045Z,16.90
2019-02-14T10:08:37.899Z,17.00
2019-02-14T10:10:20.060Z,17.20
2019-02-14T10:11:55.657Z,17.30
2019-02-14T10:13:30.997Z,17.50
2019-02-14T10:15:08.734Z,17.60
2019-02-14T10:16:44.218Z,17.70
2019-02-14T10:18:19.375Z,17.90
2019-02-14T10:19:55.688Z,18.00
2019-02-14T10:21:30.921Z,18.10
2019-02-14T10:23:06.090Z,18.30
2019-02-14T10:24:41.277Z,18.40
2019-02-14T10:26:16.455Z,18.50
2019-02-14T10:27:51.623Z,18.60
2019-02-14T10:29:26.800Z,18.70
2019-02-14T10:31:02.041Z,18.80
2019-02-14T10:32:37.449Z,18.90
2019-02-14T10:34:12.622Z,19.00
2019-02-14T10:35:47.795Z,19.10
2019-02-14T10:37:22.971Z,19.20
2019-02-14T10:38:58.147Z,19.30
2019-02-14T10:40:33.320Z,19.30
2019-02-14T10:42:08.495Z,19.40
2019-02-14T10:43:48.790Z,19.40
2019-02-14T10:45:24.099Z,19.40
2019-02-14T10:46:59.280Z,19.50
2019-02-14T10:48:34.448Z,19.50
2019-02-14T10:50:11.140Z,19.60
2019-02-14T10:51:46.379Z,19.70
2019-02-14T10:53:21.619Z,19.70
2019-02-14T10:54:57.155Z,19.80
2019-02-14T10:56:32.345Z,19.80
2019-02-14T10:58:07.517Z,19.80
2019-02-14T10:59:42.955Z,19.90
2019-02-14T11:01:18.495Z,20.00
2019-02-14T11:02:53.672Z,20.10
2019-02-14T11:04:28.854Z,20.20
2019-02-14T11:06:04.079Z,20.20
2019-02-14T11:07:39.251Z,20.20
2019-02-14T11:09:14.423Z,20.20
2019-02-14T11:10:49.606Z,20.20
2019-02-14T11:12:24.778Z,20.20
2019-02-14T11:13:59.951Z,20.20
2019-02-14T11:15:35.129Z,20.20
2019-02-14T11:17:10.311Z,20.30
2019-02-14T11:18:45.498Z,20.40
2019-02-14T11:20:20.674Z,20.50
2019-02-14T11:21:56.313Z,20.50
2019-02-14T11:23:31.481Z,20.60
2019-02-14T11:25:11.361Z,20.70
2019-02-14T11:26:46.541Z,20.80
2019-02-14T11:28:21.727Z,20.80
2019-02-14T11:29:56.919Z,20.90
2019-02-14T11:31:32.095Z,20.90
2019-02-14T11:33:07.271Z,21.00
2019-02-14T11:34:42.446Z,21.00
2019-02-14T11:36:17.452Z,21.00
2019-02-14T11:37:52.494Z,21.00
2019-02-14T11:39:27.683Z,21.00
2019-02-14T11:41:02.853Z,20.90
2019-02-14T11:42:38.040Z,20.90
2019-02-14T11:44:13.559Z,20.80
2019-02-14T11:45:48.987Z,20.80
2019-02-14T11:47:24.166Z,20.80
2019-02-14T11:48:59.596Z,20.70
2019-02-14T11:50:35.736Z,20.60
2019-02-14T11:52:10.915Z,20.60
2019-02-14T11:53:46.101Z,20.50
2019-02-14T11:55:21.281Z,20.50
2019-02-14T11:56:56.724Z,20.50
2019-02-14T11:58:32.275Z,20.50
2019-02-14T12:00:13.528Z,20.50
2019-02-14T12:01:55.172Z,20.40
2019-02-14T12:03:26.663Z,20.40
2019-02-14T12:05:01.832Z,20.40
2019-02-14T12:06:37.104Z,20.30
2019-02-14T12:08:12.290Z,20.10
2019-02-14T12:09:47.458Z,19.90
2019-02-14T12:11:22.648Z,19.70
2019-02-14T12:12:57.835Z,19.40
2019-02-14T12:14:33.008Z,19.20
2019-02-14T12:16:08.183Z,19.00
2019-02-14T12:17:43.359Z,18.80
2019-02-14T12:19:18.538Z,18.60
2019-02-14T12:20:53.706Z,18.50
2019-02-14T12:22:28.881Z,18.30
2019-02-14T12:24:04.305Z,18.10
2019-02-14T12:25:39.494Z,18.00
2019-02-14T12:27:14.659Z,17.90
2019-02-14T12:28:49.847Z,17.70
2019-02-14T12:30:25.023Z,17.60
2019-02-14T12:32:00.195Z,17.50
2019-02-14T12:33:35.390Z,17.40
2019-02-14T12:35:10.561Z,17.30
2019-02-14T12:36:45.761Z,17.20
2019-02-14T12:38:20.929Z,17.10
2019-02-14T12:39:57.230Z,17.00
2019-02-14T12:41:32.427Z,16.90
2019-02-14T12:43:07.614Z,16.90
2019-02-14T12:44:42.782Z,16.80
2019-02-14T12:46:17.953Z,16.70
2019-02-14T12:47:53.142Z,16.60
2019-02-14T12:49:28.364Z,16.60
2019-02-14T12:51:03.504Z,16.50
2019-02-14T12:52:38.702Z,16.40
2019-02-14T12:54:13.887Z,16.40
2019-02-14T12:55:49.063Z,16.30
2019-02-14T12:57:24.239Z,16.30
2019-02-14T12:58:59.422Z,16.20
2019-02-14T13:00:34.599Z,16.20
2019-02-14T13:02:09.767Z,16.20
2019-02-14T13:03:44.957Z,16.20
2019-02-14T13:05:20.128Z,16.10
2019-02-14T13:06:55.579Z,16.10
2019-02-14T13:08:31.096Z,16.00
2019-02-14T13:10:12.473Z,16.00
2019-02-14T13:11:47.642Z,16.00
2019-02-14T13:13:22.819Z,15.90
2019-02-14T13:14:57.987Z,15.90
2019-02-14T13:16:33.191Z,15.80
2019-02-14T13:18:08.358Z,15.80
2019-02-14T13:19:43.569Z,15.70
2019-02-14T13:21:18.750Z,15.70
2019-02-14T13:22:53.923Z,15.70
2019-02-14T13:24:30.072Z,15.60
2019-02-14T13:26:05.509Z,15.60
2019-02-14T13:27:40.722Z,15.60
2019-02-14T13:29:16.146Z,15.50
2019-02-14T13:30:51.563Z,15.50
2019-02-14T13:32:27.688Z,15.50
2019-02-14T13:34:02.872Z,15.50
2019-02-14T13:35:38.041Z,15.50
2019-02-14T13:37:13.389Z,15.50
2019-02-14T13:38:48.711Z,15.50
2019-02-14T13:40:23.886Z,15.40
2019-02-14T13:41:59.061Z,15.40
2019-02-14T13:43:34.250Z,15.40
2019-02-14T13:45:16.272Z,15.40
2019-02-14T13:46:51.464Z,15.40
2019-02-14T13:48:27.758Z,15.30
2019-02-14T13:50:02.982Z,15.30
2019-02-14T13:51:38.153Z,15.30
2019-02-14T13:53:13.327Z,15.30
2019-02-14T13:54:48.534Z,15.30
2019-02-14T13:56:23.710Z,15.30
2019-02-14T13:57:58.894Z,15.30
2019-02-14T13:59:34.072Z,15.30
2019-02-14T14:01:09.247Z,15.20
2019-02-14T14:02:44.416Z,15.20
2019-02-14T14:04:19.597Z,15.20
2019-02-14T14:05:54.775Z,15.20
2019-02-14T14:07:39.895Z,15.20
2019-02-14T14:09:08.933Z,15.20
2019-02-14T14:10:44.106Z,15.20
2019-02-14T14:12:19.285Z,15.20
2019-02-14T14:13:54.463Z,15.20
2019-02-14T14:15:29.636Z,15.20
2019-02-14T14:17:04.812Z,15.20
2019-02-14T14:18:40.009Z,15.20
2019-02-14T14:20:15.200Z,15.10
2019-02-14T14:21:50.370Z,15.20
2019-02-14T14:23:25.544Z,15.10
2019-02-14T14:25:01.003Z,15.20
2019-02-14T14:26:37.127Z,15.20
2019-02-14T14:28:15.208Z,15.20
2019-02-14T14:29:50.388Z,15.20
2019-02-14T14:31:25.564Z,15.20
2019-02-14T14:33:00.742Z,15.20
2019-02-14T14:34:35.920Z,15.10
2019-02-14T14:36:11.097Z,15.20
2019-02-14T14:37:46.273Z,15.20
2019-02-14T14:39:21.461Z,15.10
2019-02-14T14:40:56.677Z,15.10
2019-02-14T14:42:36.898Z,15.10
2019-02-14T14:44:13.721Z,15.10
2019-02-14T14:46:02.820Z,15.10
2019-02-14T14:47:37.989Z,15.10
2019-02-14T14:49:13.195Z,15.00
2019-02-14T14:50:48.371Z,15.00
2019-02-14T14:52:23.811Z,15.00
2019-02-14T14:53:58.989Z,15.00
2019-02-14T14:55:34.459Z,15.00
2019-02-14T14:57:09.891Z,15.00
2019-02-14T14:58:45.712Z,15.00
2019-02-14T15:00:21.036Z,15.00
2019-02-14T15:01:56.218Z,15.00
2019-02-14T15:03:31.390Z,15.00
2019-02-14T15:05:07.588Z,15.00
2019-02-14T15:06:42.781Z,14.90
2019-02-14T15:08:17.961Z,14.90
2019-02-14T15:09:57.483Z,14.90
2019-02-14T15:11:29.937Z,14.90
2019-02-14T15:13:05.109Z,14.90
2019-02-14T15:14:40.290Z,14.90
2019-02-14T15:16:15.467Z,14.90
2019-02-14T15:17:50.646Z,14.80
2019-02-14T15:19:25.823Z,14.80
2019-02-14T15:21:01.003Z,14.80
2019-02-14T15:22:36.174Z,14.80
2019-02-14T15:24:11.356Z,14.80
2019-02-14T15:25:46.544Z,14.80
2019-02-14T15:27:21.722Z,14.70
2019-02-14T15:28:56.912Z,14.70
2019-02-14T15:30:32.091Z,14.70
2019-02-14T15:32:07.861Z,14.70
2019-02-14T15:33:43.041Z,14.60
2019-02-14T15:35:18.219Z,14.60
2019-02-14T15:36:53.390Z,14.60
2019-02-14T15:38:29.535Z,14.60
2019-02-14T15:40:10.052Z,14.60
2019-02-14T15:41:45.234Z,14.50
2019-02-14T15:43:20.413Z,14.50
2019-02-14T15:44:55.589Z,14.50
2019-02-14T15:46:30.784Z,14.50
2019-02-14T15:48:05.950Z,14.40
2019-02-14T15:49:41.120Z,14.40
2019-02-14T15:51:18.339Z,14.40
2019-02-14T15:52:54.760Z,14.30
2019-02-14T15:54:31.359Z,14.30
2019-02-14T15:56:07.823Z,14.30
2019-02-14T15:57:44.782Z,14.20
2019-02-14T15:59:21.026Z,14.20
2019-02-14T16:00:56.283Z,14.20
2019-02-14T16:02:33.137Z,14.20
2019-02-14T16:04:09.405Z,14.10
2019-02-14T16:05:44.609Z,14.10
2019-02-14T16:07:19.754Z,14.10
2019-02-14T16:08:55.012Z,14.00
2019-02-14T16:10:30.183Z,14.00
2019-02-14T16:12:05.364Z,14.00
2019-02-14T16:13:40.535Z,13.90
2019-02-14T16:15:15.718Z,13.90
2019-02-14T16:16:50.893Z,13.90
2019-02-14T16:18:26.063Z,13.80
2019-02-14T16:20:01.236Z,13.80
2019-02-14T16:21:36.427Z,13.70
2019-02-14T16:23:11.630Z,13.70
2019-02-14T16:24:46.855Z,13.70
2019-02-14T16:26:22.019Z,13.70
2019-02-14T16:27:57.215Z,13.60
2019-02-14T16:29:32.400Z,13.60
2019-02-14T16:31:07.626Z,13.50
2019-02-14T16:32:42.807Z,13.50
2019-02-14T16:34:17.984Z,13.40
2019-02-14T16:35:53.411Z,13.40
2019-02-14T16:37:28.593Z,13.40
2019-02-14T16:39:04.711Z,13.30
2019-02-14T16:40:40.869Z,13.30
2019-02-14T16:42:16.061Z,13.30
2019-02-14T16:43:51.229Z,13.20
2019-02-14T16:45:26.663Z,13.20
2019-02-14T16:47:01.853Z,13.20
2019-02-14T16:48:37.022Z,13.10
2019-02-14T16:50:12.249Z,13.10
2019-02-14T16:51:47.433Z,13.00
2019-02-14T16:53:22.609Z,13.00
2019-02-14T16:54:57.791Z,13.00
2019-02-14T16:56:32.971Z,12.90
2019-02-14T16:58:08.416Z,12.90
2019-02-14T16:59:43.579Z,12.80
2019-02-14T17:01:18.759Z,12.80
2019-02-14T17:02:54.233Z,12.80
2019-02-14T17:04:29.427Z,12.70
2019-02-14T17:06:04.901Z,12.70
2019-02-14T17:07:40.079Z,12.60
2019-02-14T17:09:15.258Z,12.60
2019-02-14T17:10:50.692Z,12.60
2019-02-14T17:12:25.704Z,12.50
2019-02-14T17:14:01.058Z,12.50
2019-02-14T17:15:36.495Z,12.40
2019-02-14T17:17:11.692Z,12.40
2019-02-14T17:18:46.854Z,12.40
2019-02-14T17:20:22.035Z,12.30
2019-02-14T17:21:57.229Z,12.30
2019-02-14T17:23:32.415Z,12.20
2019-02-14T17:25:08.929Z,12.20
2019-02-14T17:26:44.364Z,12.20
2019-02-14T17:28:19.558Z,12.10
2019-02-14T17:29:55.863Z,12.10
2019-02-14T17:31:31.038Z,12.10
2019-02-14T17:33:06.506Z,12.00
2019-02-14T17:34:41.701Z,12.10
2019-02-14T17:36:16.707Z,12.20
2019-02-14T17:37:51.994Z,12.30
2019-02-14T17:39:27.192Z,12.30
2019-02-14T17:41:02.693Z,12.40
2019-02-14T17:42:37.882Z,12.40
2019-02-14T17:44:13.060Z,12.30
2019-02-14T17:45:48.236Z,12.30
2019-02-14T17:47:23.286Z,12.30
2019-02-14T17:48:58.217Z,12.30
2019-02-14T17:50:33.057Z,12.20
2019-02-14T17:52:08.500Z,12.20
2019-02-14T17:53:43.690Z,12.20
2019-02-14T17:55:18.867Z,12.10
2019-02-14T17:56:54.043Z,12.10
2019-02-14T17:58:29.046Z,12.00
2019-02-14T18:00:10.124Z,12.00
2019-02-14T18:01:45.117Z,11.90
2019-02-14T18:03:19.984Z,11.90
2019-02-14T18:04:55.798Z,11.80
2019-02-14T18:06:30.814Z,11.70
2019-02-14T18:08:06.046Z,11.70
2019-02-14T18:09:41.229Z,11.70
2019-02-14T18:11:16.228Z,11.60
2019-02-14T18:12:51.249Z,11.60
2019-02-14T18:14:26.513Z,11.50
2019-02-14T18:16:01.399Z,11.50
2019-02-14T18:17:36.717Z,11.50
2019-02-14T18:19:11.954Z,11.40
2019-02-14T18:20:47.157Z,11.40
2019-02-14T18:22:22.302Z,11.40
2019-02-14T18:23:57.748Z,11.30
2019-02-14T18:25:32.923Z,11.30
2019-02-14T18:27:08.139Z,11.30
2019-02-14T18:28:43.329Z,11.30
2019-02-14T18:30:18.760Z,11.20
2019-02-14T18:31:53.943Z,11.20
2019-02-14T18:33:29.109Z,11.20
2019-02-14T18:35:06.505Z,11.20
2019-02-14T18:36:42.051Z,11.20
2019-02-14T18:38:17.220Z,11.10
2019-02-14T18:39:52.717Z,11.10
2019-02-14T18:41:27.725Z,11.10
2019-02-14T18:43:02.748Z,11.10
2019-02-14T18:44:37.940Z,11.00
2019-02-14T18:46:13.107Z,11.00
2019-02-14T18:47:48.294Z,11.00
2019-02-14T18:49:23.475Z,11.00
2019-02-14T18:50:58.644Z,11.00
2019-02-14T18:52:33.831Z,11.00
2019-02-14T18:54:09.028Z,11.00
2019-02-14T18:55:44.026Z,11.00
2019-02-14T18:57:19.055Z,11.00
2019-02-14T18:58:54.236Z,11.00
2019-02-14T19:00:29.408Z,10.90
2019-02-14T19:02:04.583Z,10.90
2019-02-14T19:03:39.748Z,11.00
2019-02-14T19:05:14.942Z,10.90
2019-02-14T19:06:50.107Z,10.90
2019-02-14T19:08:25.279Z,10.90
2019-02-14T19:10:00.491Z,10.90
2019-02-14T19:11:35.646Z,10.90
2019-02-14T19:13:10.824Z,10.90
2019-02-14T19:14:46.151Z,10.80
2019-02-14T19:16:21.163Z,10.80
2019-02-14T19:17:57.055Z,10.80
2019-02-14T19:19:32.225Z,10.80
2019-02-14T19:21:07.407Z,10.80
2019-02-14T19:22:42.953Z,10.80
2019-02-14T19:24:18.804Z,10.80
2019-02-14T19:25:54.087Z,10.70
2019-02-14T19:27:29.263Z,10.70
2019-02-14T19:29:04.437Z,10.70
2019-02-14T19:30:39.615Z,10.70
2019-02-14T19:32:14.784Z,10.70
2019-02-14T19:33:49.957Z,10.70
2019-02-14T19:35:24.971Z,10.70
2019-02-14T19:36:59.989Z,10.70
2019-02-14T19:38:35.505Z,10.70
2019-02-14T19:40:10.660Z,10.70
2019-02-14T19:41:45.823Z,10.70
2019-02-14T19:43:21.005Z,10.60
2019-02-14T19:44:57.311Z,10.60
2019-02-14T19:46:32.745Z,10.60
2019-02-14T19:48:07.915Z,10.60
2019-02-14T19:49:43.216Z,10.60
2019-02-14T19:51:18.332Z,10.60
2019-02-14T19:52:53.500Z,10.60
2019-02-14T19:54:28.672Z,10.60
2019-02-14T19:56:03.670Z,10.60
2019-02-14T19:57:38.883Z,10.60
2019-02-14T19:59:13.939Z,10.60
2019-02-14T20:00:49.107Z,10.60
2019-02-14T20:02:24.295Z,10.60
2019-02-14T20:04:00.565Z,10.60
2019-02-14T20:05:35.721Z,10.60
2019-02-14T20:07:11.197Z,10.60
2019-02-14T20:08:46.371Z,10.60
2019-02-14T20:10:21.747Z,10.60
2019-02-14T20:11:57.417Z,10.60
2019-02-14T20:13:32.588Z,10.60
2019-02-14T20:15:15.411Z,10.60
2019-02-14T20:16:50.570Z,10.50
2019-02-14T20:18:26.012Z,10.50
2019-02-14T20:20:01.184Z,10.50
2019-02-14T20:21:36.359Z,10.50
2019-02-14T20:23:12.511Z,10.50
2019-02-14T20:24:47.686Z,10.50
2019-02-14T20:26:22.864Z,10.50
2019-02-14T20:27:58.038Z,10.50
2019-02-14T20:29:33.226Z,10.50
2019-02-14T20:31:08.411Z,10.50
2019-02-14T20:32:43.589Z,10.50
2019-02-14T20:34:18.759Z,10.50
2019-02-14T20:35:53.942Z,10.40
2019-02-14T20:37:29.423Z,10.40
2019-02-14T20:39:05.236Z,10.40
2019-02-14T20:40:41.400Z,10.40
2019-02-14T20:42:16.577Z,10.40
2019-02-14T20:43:51.745Z,10.40
2019-02-14T20:45:27.850Z,10.40
2019-02-14T20:47:04.090Z,10.40
2019-02-14T20:48:39.259Z,10.40
2019-02-14T20:50:16.638Z,10.30
2019-02-14T20:51:51.811Z,10.30
2019-02-14T20:53:29.632Z,10.30
2019-02-14T20:55:15.889Z,10.30
2019-02-14T20:56:51.047Z,10.30
2019-02-14T20:58:26.217Z,10.30
2019-02-14T21:00:01.391Z,10.30
2019-02-14T21:01:36.577Z,10.30
2019-02-14T21:03:11.739Z,10.40
2019-02-14T21:04:46.901Z,10.30
2019-02-14T21:06:22.085Z,10.40
2019-02-14T21:07:57.322Z,10.40
2019-02-14T21:09:32.802Z,10.40
2019-02-14T21:11:07.980Z,10.40
2019-02-14T21:12:43.474Z,10.40
2019-02-14T21:14:18.639Z,10.40
2019-02-14T21:15:53.829Z,10.40
2019-02-14T21:17:29.378Z,10.40
2019-02-14T21:19:04.554Z,10.40
2019-02-14T21:20:39.727Z,10.40
2019-02-14T21:22:18.591Z,10.40
2019-02-14T21:23:51.685Z,10.40
2019-02-14T21:25:26.875Z,10.40
2019-02-14T21:27:02.050Z,10.40
2019-02-14T21:28:37.237Z,10.40
2019-02-14T21:30:20.715Z,10.40
2019-02-14T21:31:55.896Z,10.40
2019-02-14T21:33:31.635Z,10.40
2019-02-14T21:35:07.179Z,10.40
2019-02-14T21:36:42.358Z,10.40
2019-02-14T21:38:17.540Z,10.30
2019-02-14T21:39:52.869Z,10.30
2019-02-14T21:41:28.062Z,10.30
2019-02-14T21:43:03.238Z,10.30
2019-02-14T21:44:38.682Z,10.30
2019-02-14T21:46:13.838Z,10.20
2019-02-14T21:47:49.010Z,10.20
2019-02-14T21:49:24.191Z,10.20
2019-02-14T21:50:59.375Z,10.20
2019-02-14T21:52:34.559Z,10.20
2019-02-14T21:54:09.812Z,10.20
2019-02-14T21:55:44.973Z,10.20
2019-02-14T21:57:20.129Z,10.10
2019-02-14T21:58:55.299Z,10.10
2019-02-14T22:00:30.543Z,10.10
2019-02-14T22:02:07.142Z,10.10
2019-02-14T22:03:42.362Z,10.10
2019-02-14T22:05:17.529Z,10.00
2019-02-14T22:06:52.716Z,10.00
2019-02-14T22:08:27.877Z,10.00
2019-02-14T22:10:03.675Z,9.90
2019-02-14T22:11:38.995Z,9.90